Time;durP1;ratioP1;P1;durP2;ratioP2;P2;SDS_P1;SDS_P2;PMS_P1;PMS_P2;Temp;Humidity;BMP_temperature;BMP_pressure;BME280_temperature;BME280_humidity;BME280_pressure;Samples;Min_cycle;Max_cycle;Signal;HPM_P1;HPM_P2
2023/12/26 00:01:11;;;;;;;6.25;4.40;;;;;;;;;;5013733;28;20559;-70
2023/12/26 00:03:37;;;;;;;4.10;3.03;;;;;;;;;;5013695;28;20053;-69
2023/12/26 00:06:02;;;;;;;4.22;3.05;;;;;;;;;;5013789;28;20068;-67
2023/12/26 00:08:28;;;;;;;4.15;3.53;;;;;;;;;;5012394;28;20030;-67
2023/12/26 00:10:53;;;;;;;5.30;3.92;;;;;;;;;;5013833;28;20034;-67
2023/12/26 00:13:19;;;;;;;4.88;4.03;;;;;;;;;;5028892;28;20033;-70
2023/12/26 00:15:44;;;;;;;4.45;3.97;;;;;;;;;;5013860;28;20494;-66
2023/12/26 00:18:10;;;;;;;6.32;4.35;;;;;;;;;;5017642;28;20468;-70
2023/12/26 00:20:39;;;;;;;6.07;4.65;;;;;;;;;;5017493;28;20057;-67
2023/12/26 00:23:05;;;;;;;4.10;3.72;;;;;;;;;;5017294;28;20026;-67
2023/12/26 00:25:31;;;;;;;6.72;3.78;;;;;;;;;;5017593;28;20354;-67
2023/12/26 00:27:56;;;;;;;7.85;4.63;;;;;;;;;;5032710;28;20033;-67
2023/12/26 00:30:22;;;;;;;4.45;3.97;;;;;;;;;;5015729;28;20430;-69
2023/12/26 00:32:47;;;;;;;7.15;5.22;;;;;;;;;;5016992;28;20523;-69
2023/12/26 00:35:13;;;;;;;7.70;5.45;;;;;;;;;;5015953;28;20372;-69
2023/12/26 00:37:40;;;;;;;15.00;7.38;;;;;;;;;;5017127;28;20038;-68
2023/12/26 00:40:06;;;;;;;17.17;8.73;;;;;;;;;;5017387;28;20028;-68
2023/12/26 00:42:33;;;;;;;13.43;7.75;;;;;;;;;;5015580;28;20026;-68
2023/12/26 00:44:58;;;;;;;10.27;5.90;;;;;;;;;;5015626;28;20037;-68
2023/12/26 00:47:24;;;;;;;8.60;5.35;;;;;;;;;;5017252;28;20026;-68
2023/12/26 00:49:49;;;;;;;9.05;4.57;;;;;;;;;;5016782;28;20431;-67
2023/12/26 00:52:14;;;;;;;5.82;4.43;;;;;;;;;;5015480;28;20117;-68
2023/12/26 00:54:40;;;;;;;5.13;4.47;;;;;;;;;;5017019;28;20415;-71
2023/12/26 00:57:05;;;;;;;5.25;3.83;;;;;;;;;;5016680;28;20528;-71
2023/12/26 00:59:31;;;;;;;5.28;3.70;;;;;;;;;;5016108;28;20405;-71
2023/12/26 01:02:01;;;;;;;5.10;4.07;;;;;;;;;;5016204;28;20449;-70
2023/12/26 01:04:26;;;;;;;4.88;4.05;;;;;;;;;;5017085;28;20050;-70
2023/12/26 01:06:52;;;;;;;5.95;4.30;;;;;;;;;;5015282;28;20530;-69
2023/12/26 01:09:17;;;;;;;4.38;3.55;;;;;;;;;;5015176;28;20483;-69
2023/12/26 01:11:43;;;;;;;4.05;3.33;;;;;;;;;;5015192;28;20037;-68
2023/12/26 01:14:08;;;;;;;4.40;3.70;;;;;;;;;;5015150;28;20447;-69
2023/12/26 01:16:33;;;;;;;6.10;4.28;;;;;;;;;;5016855;28;20026;-69
2023/12/26 01:18:59;;;;;;;4.95;3.22;;;;;;;;;;5016246;28;20486;-69
2023/12/26 01:21:24;;;;;;;4.55;3.25;;;;;;;;;;5016263;28;20037;-67
2023/12/26 01:23:52;;;;;;;3.58;2.83;;;;;;;;;;5016390;28;20060;-68
2023/12/26 01:26:18;;;;;;;4.03;2.83;;;;;;;;;;5016264;28;20057;-67
2023/12/26 01:28:43;;;;;;;4.22;2.90;;;;;;;;;;5015245;28;20518;-70
2023/12/26 01:31:09;;;;;;;4.05;2.78;;;;;;;;;;5031340;28;20205;-70
2023/12/26 01:33:34;;;;;;;5.18;3.65;;;;;;;;;;5014686;28;20495;-69
2023/12/26 01:36:00;;;;;;;7.45;3.63;;;;;;;;;;5015905;28;20033;-70
2023/12/26 01:38:27;;;;;;;7.75;3.50;;;;;;;;;;5014700;28;20049;-69
2023/12/26 01:40:52;;;;;;;3.05;2.42;;;;;;;;;;5014247;28;20033;-71
2023/12/26 01:43:18;;;;;;;3.80;2.25;;;;;;;;;;5016006;28;20435;-69
2023/12/26 01:45:43;;;;;;;2.28;1.92;;;;;;;;;;5031085;28;20361;-69
2023/12/26 01:48:09;;;;;;;2.67;2.25;;;;;;;;;;5015948;28;20030;-70
2023/12/26 01:50:35;;;;;;;2.55;1.98;;;;;;;;;;5031605;28;20032;-68
2023/12/26 01:53:01;;;;;;;6.60;2.60;;;;;;;;;;5015819;28;20034;-69
2023/12/26 01:55:27;;;;;;;4.43;2.63;;;;;;;;;;5015865;28;20491;-69
2023/12/26 01:57:54;;;;;;;6.15;3.40;;;;;;;;;;5030683;28;20393;-69
2023/12/26 02:00:19;;;;;;;6.13;3.55;;;;;;;;;;5030673;28;20028;-68
2023/12/26 02:02:44;;;;;;;7.80;3.55;;;;;;;;;;5014399;28;20034;-71
2023/12/26 02:05:12;;;;;;;9.95;5.07;;;;;;;;;;5030960;28;20036;-70
2023/12/26 02:07:37;;;;;;;4.97;2.97;;;;;;;;;;5044928;22;20060;-68
2023/12/26 02:10:09;;;;;;;7.00;3.55;;;;;;;;;;5063228;23;20068;-64
2023/12/26 02:12:35;;;;;;;3.65;2.75;;;;;;;;;;5008671;28;20054;-64
2023/12/26 02:15:01;;;;;;;5.15;2.08;;;;;;;;;;4977878;28;20045;-65
2023/12/26 02:17:28;;;;;;;3.42;2.45;;;;;;;;;;5010884;28;20026;-65
2023/12/26 02:19:54;;;;;;;3.42;2.40;;;;;;;;;;5010601;28;20485;-64
2023/12/26 02:22:24;;;;;;;2.85;2.08;;;;;;;;;;4978094;28;20113;-65
2023/12/26 02:24:49;;;;;;;2.20;1.55;;;;;;;;;;4995959;28;20121;-65
2023/12/26 02:27:17;;;;;;;3.17;2.20;;;;;;;;;;4995511;28;20050;-65
2023/12/26 02:29:47;;;;;;;2.10;1.75;;;;;;;;;;5009973;28;20092;-65
2023/12/26 02:32:13;;;;;;;1.90;1.80;;;;;;;;;;4995448;28;20121;-65
2023/12/26 02:34:39;;;;;;;1.98;1.77;;;;;;;;;;4995377;28;20038;-65
2023/12/26 02:37:05;;;;;;;1.58;1.48;;;;;;;;;;5004525;28;20026;-65
2023/12/26 02:39:31;;;;;;;1.98;1.75;;;;;;;;;;4994992;28;20030;-65
2023/12/26 02:41:57;;;;;;;1.65;1.55;;;;;;;;;;5010913;28;20057;-66
2023/12/26 02:44:22;;;;;;;1.92;1.77;;;;;;;;;;4994978;28;20030;-65
2023/12/26 02:46:47;;;;;;;2.72;1.63;;;;;;;;;;4994349;28;20035;-65
2023/12/26 02:49:13;;;;;;;1.42;1.27;;;;;;;;;;4994891;28;20034;-65
2023/12/26 02:51:38;;;;;;;2.05;1.75;;;;;;;;;;4994969;28;20035;-65
2023/12/26 02:54:04;;;;;;;1.38;1.27;;;;;;;;;;4995501;28;20034;-64
2023/12/26 02:56:29;;;;;;;1.40;1.30;;;;;;;;;;5009959;28;20037;-65
2023/12/26 02:58:55;;;;;;;1.65;1.27;;;;;;;;;;4995003;28;20493;-65
2023/12/26 03:01:20;;;;;;;1.15;1.05;;;;;;;;;;4995236;28;20350;-65
2023/12/26 03:03:46;;;;;;;1.30;1.20;;;;;;;;;;4995028;28;20026;-65
2023/12/26 03:06:11;;;;;;;1.50;1.40;;;;;;;;;;4995189;28;20027;-65
2023/12/26 03:08:36;;;;;;;1.83;1.40;;;;;;;;;;4994730;28;20436;-65
2023/12/26 03:11:02;;;;;;;1.35;1.15;;;;;;;;;;5008804;28;20073;-65
2023/12/26 03:13:28;;;;;;;1.15;1.08;;;;;;;;;;5033847;28;20026;-65
2023/12/26 03:15:54;;;;;;;1.83;1.38;;;;;;;;;;5016773;28;20017;-66
2023/12/26 03:18:20;;;;;;;2.97;1.65;;;;;;;;;;5016230;28;20527;-65
2023/12/26 03:20:45;;;;;;;1.23;1.13;;;;;;;;;;5032537;28;20487;-65
2023/12/26 03:23:11;;;;;;;1.38;1.27;;;;;;;;;;5016672;28;20028;-65
2023/12/26 03:25:37;;;;;;;2.17;1.10;;;;;;;;;;5032926;28;20494;-64
2023/12/26 03:28:03;;;;;;;1.30;1.20;;;;;;;;;;5032570;28;20025;-64
2023/12/26 03:30:29;;;;;;;2.95;1.27;;;;;;;;;;5016070;28;20455;-64
2023/12/26 03:32:54;;;;;;;1.23;1.13;;;;;;;;;;5033760;28;20495;-64
2023/12/26 03:35:20;;;;;;;2.08;1.40;;;;;;;;;;5033984;28;20075;-64
2023/12/26 03:37:45;;;;;;;0.98;0.98;;;;;;;;;;5032480;28;20128;-64
2023/12/26 03:40:11;;;;;;;1.05;0.98;;;;;;;;;;5032774;28;20029;-64
2023/12/26 03:42:37;;;;;;;1.13;1.10;;;;;;;;;;5033155;28;20033;-63
2023/12/26 03:45:04;;;;;;;1.65;1.27;;;;;;;;;;5032278;28;20013;-64
2023/12/26 03:47:30;;;;;;;1.55;1.33;;;;;;;;;;5032523;28;20030;-64
2023/12/26 03:49:55;;;;;;;1.33;1.23;;;;;;;;;;5032357;28;20464;-64
2023/12/26 03:52:21;;;;;;;1.30;1.20;;;;;;;;;;5034983;28;20033;-64
2023/12/26 03:54:46;;;;;;;0.68;0.68;;;;;;;;;;5036613;28;20091;-64
2023/12/26 03:57:12;;;;;;;1.05;1.05;;;;;;;;;;5036593;28;20126;-63
2023/12/26 03:59:38;;;;;;;1.20;1.10;;;;;;;;;;5037732;28;20024;-63
2023/12/26 04:02:04;;;;;;;1.00;1.00;;;;;;;;;;5036447;28;20030;-64
2023/12/26 04:04:30;;;;;;;1.05;0.98;;;;;;;;;;5036409;28;20411;-63
2023/12/26 04:06:55;;;;;;;1.00;0.90;;;;;;;;;;5036180;28;20018;-63
2023/12/26 04:09:21;;;;;;;0.75;0.75;;;;;;;;;;5036670;28;20029;-63
2023/12/26 04:11:46;;;;;;;1.08;0.95;;;;;;;;;;5019785;28;20042;-64
2023/12/26 04:14:12;;;;;;;1.27;1.17;;;;;;;;;;5013525;28;20031;-64
2023/12/26 04:16:37;;;;;;;1.23;1.10;;;;;;;;;;4997306;28;20513;-64
2023/12/26 04:19:03;;;;;;;0.98;0.98;;;;;;;;;;5013328;28;20037;-64
2023/12/26 04:21:28;;;;;;;1.42;1.10;;;;;;;;;;4998033;28;20038;-64
2023/12/26 04:23:54;;;;;;;1.25;1.00;;;;;;;;;;4997801;28;20034;-64
2023/12/26 04:26:19;;;;;;;1.17;1.10;;;;;;;;;;4997936;28;20089;-65
2023/12/26 04:28:47;;;;;;;1.23;1.13;;;;;;;;;;4997514;28;20421;-64
2023/12/26 04:31:12;;;;;;;2.20;1.00;;;;;;;;;;5012803;28;20026;-64
2023/12/26 04:33:57;;;;;;;1.52;1.08;;;;;;;;;;5030469;23;20032;-65
2023/12/26 04:36:55;;;;;;;1.02;1.02;;;;;;;;;;5010756;28;20070;-65
2023/12/26 04:39:21;;;;;;;0.68;0.68;;;;;;;;;;5013027;28;20027;-65
2023/12/26 04:41:47;;;;;;;1.27;1.17;;;;;;;;;;4996025;28;20485;-64
2023/12/26 04:44:12;;;;;;;1.17;1.08;;;;;;;;;;4997651;28;20106;-64
2023/12/26 04:46:38;;;;;;;1.20;1.10;;;;;;;;;;4996015;28;20019;-68
2023/12/26 04:49:04;;;;;;;0.90;0.90;;;;;;;;;;5012881;28;20014;-68
2023/12/26 04:51:30;;;;;;;1.13;0.90;;;;;;;;;;5012547;28;20108;-68
2023/12/26 04:53:56;;;;;;;0.88;0.88;;;;;;;;;;5012299;28;20113;-67
2023/12/26 04:56:21;;;;;;;0.60;0.60;;;;;;;;;;4996323;28;20049;-67
2023/12/26 04:58:48;;;;;;;1.45;0.90;;;;;;;;;;4996567;28;20100;-69
2023/12/26 05:01:14;;;;;;;0.93;0.88;;;;;;;;;;5011946;28;20053;-69
2023/12/26 05:03:40;;;;;;;1.25;1.15;;;;;;;;;;5010754;28;20468;-70
2023/12/26 05:06:05;;;;;;;1.20;1.08;;;;;;;;;;4996983;28;20027;-70
2023/12/26 05:08:31;;;;;;;1.05;0.85;;;;;;;;;;4997103;28;20389;-70
2023/12/26 05:10:57;;;;;;;0.93;0.93;;;;;;;;;;5011995;28;20023;-70
2023/12/26 05:13:22;;;;;;;1.20;1.10;;;;;;;;;;5012349;28;20449;-70
2023/12/26 05:15:51;;;;;;;1.45;0.90;;;;;;;;;;5012098;28;20033;-70
2023/12/26 05:18:16;;;;;;;0.80;0.80;;;;;;;;;;5011777;28;20022;-70
2023/12/26 05:20:42;;;;;;;0.90;0.90;;;;;;;;;;4995413;28;20030;-68
2023/12/26 05:23:07;;;;;;;0.90;0.90;;;;;;;;;;4996718;28;20022;-68
2023/12/26 05:25:34;;;;;;;1.10;1.00;;;;;;;;;;5012443;28;20033;-68
2023/12/26 05:27:59;;;;;;;0.90;0.90;;;;;;;;;;5050618;22;20494;-65
2023/12/26 05:30:25;;;;;;;1.10;0.90;;;;;;;;;;5041541;28;20090;-68
2023/12/26 05:32:50;;;;;;;0.95;0.95;;;;;;;;;;5057854;28;20043;-69
2023/12/26 05:35:19;;;;;;;1.65;0.70;;;;;;;;;;5058393;28;20048;-68
2023/12/26 05:37:45;;;;;;;1.00;1.00;;;;;;;;;;5074836;28;20408;-69
2023/12/26 05:40:11;;;;;;;0.70;0.70;;;;;;;;;;5058089;28;20351;-68
2023/12/26 05:42:37;;;;;;;1.50;0.82;;;;;;;;;;5057944;28;20052;-68
2023/12/26 05:45:03;;;;;;;0.88;0.88;;;;;;;;;;5057962;28;20047;-69
2023/12/26 05:47:29;;;;;;;0.80;0.80;;;;;;;;;;5058034;28;20028;-69
2023/12/26 05:49:57;;;;;;;0.93;0.80;;;;;;;;;;5057908;28;20024;-69
2023/12/26 05:52:23;;;;;;;0.80;0.80;;;;;;;;;;5075533;28;20040;-69
2023/12/26 05:54:49;;;;;;;0.60;0.60;;;;;;;;;;5058704;28;20036;-69
2023/12/26 05:57:14;;;;;;;0.60;0.50;;;;;;;;;;5057660;28;20032;-69
2023/12/26 05:59:39;;;;;;;1.30;0.85;;;;;;;;;;5075341;28;20021;-69
2023/12/26 06:02:05;;;;;;;0.68;0.68;;;;;;;;;;5074193;28;20033;-71
2023/12/26 06:04:34;;;;;;;0.82;0.80;;;;;;;;;;5057539;28;20036;-71
2023/12/26 06:06:59;;;;;;;0.75;0.75;;;;;;;;;;5074334;28;20444;-71
2023/12/26 06:09:26;;;;;;;1.50;0.68;;;;;;;;;;5057605;28;20020;-69
2023/12/26 06:11:52;;;;;;;0.75;0.75;;;;;;;;;;5075316;28;20523;-69
2023/12/26 06:14:17;;;;;;;0.60;0.60;;;;;;;;;;5057323;28;20028;-68
2023/12/26 06:16:43;;;;;;;0.77;0.77;;;;;;;;;;5057503;28;20029;-68
2023/12/26 06:19:09;;;;;;;0.65;0.65;;;;;;;;;;5057239;28;20585;-68
2023/12/26 06:21:36;;;;;;;0.70;0.70;;;;;;;;;;5057141;28;20066;-68
2023/12/26 06:24:01;;;;;;;1.00;0.73;;;;;;;;;;5075299;28;20078;-67
2023/12/26 06:26:27;;;;;;;0.93;0.93;;;;;;;;;;5073283;28;20110;-69
2023/12/26 06:28:52;;;;;;;0.80;0.80;;;;;;;;;;5055630;28;20040;-70
2023/12/26 06:31:18;;;;;;;0.70;0.70;;;;;;;;;;5073351;28;20031;-69
2023/12/26 06:33:44;;;;;;;0.88;0.88;;;;;;;;;;5056580;28;20040;-69
2023/12/26 06:36:09;;;;;;;0.70;0.70;;;;;;;;;;5072929;28;20028;-69
2023/12/26 06:38:36;;;;;;;0.75;0.75;;;;;;;;;;5056267;28;20443;-67
2023/12/26 06:41:02;;;;;;;0.50;0.47;;;;;;;;;;5072853;28;20569;-67
2023/12/26 06:43:28;;;;;;;0.75;0.75;;;;;;;;;;5056184;28;20111;-67
2023/12/26 06:45:54;;;;;;;0.60;0.60;;;;;;;;;;5056135;28;20111;-68
2023/12/26 06:48:19;;;;;;;0.60;0.60;;;;;;;;;;5056096;28;20017;-67
2023/12/26 06:50:45;;;;;;;0.77;0.77;;;;;;;;;;5072618;28;20467;-69
2023/12/26 06:53:10;;;;;;;0.80;0.80;;;;;;;;;;5072659;28;20024;-69
2023/12/26 06:55:36;;;;;;;0.88;0.70;;;;;;;;;;5074077;28;20109;-69
2023/12/26 06:58:01;;;;;;;0.80;0.75;;;;;;;;;;5072965;28;20052;-69
2023/12/26 07:00:27;;;;;;;1.10;0.85;;;;;;;;;;5039166;28;20041;-69
2023/12/26 07:02:54;;;;;;;1.27;0.75;;;;;;;;;;5072740;28;20079;-69
2023/12/26 07:05:20;;;;;;;0.63;0.63;;;;;;;;;;5055998;28;20078;-69
2023/12/26 07:07:46;;;;;;;0.75;0.70;;;;;;;;;;5072544;28;20413;-70
2023/12/26 07:10:11;;;;;;;0.85;0.73;;;;;;;;;;5055734;28;20025;-70
2023/12/26 07:12:37;;;;;;;1.60;1.15;;;;;;;;;;5055921;28;20032;-70
2023/12/26 07:15:04;;;;;;;0.60;0.60;;;;;;;;;;5073612;28;20089;-69
2023/12/26 07:17:29;;;;;;;0.55;0.55;;;;;;;;;;5073647;28;20397;-72
2023/12/26 07:19:55;;;;;;;0.60;0.60;;;;;;;;;;5073565;28;20020;-72
2023/12/26 07:22:20;;;;;;;0.65;0.65;;;;;;;;;;5073410;28;20024;-70
2023/12/26 07:24:45;;;;;;;0.98;0.90;;;;;;;;;;5073506;28;20028;-70
2023/12/26 07:27:11;;;;;;;0.88;0.80;;;;;;;;;;5072576;28;20027;-70
2023/12/26 07:29:37;;;;;;;1.33;0.65;;;;;;;;;;5073458;28;20066;-70
2023/12/26 07:32:02;;;;;;;0.80;0.80;;;;;;;;;;5073403;28;20028;-70
2023/12/26 07:34:27;;;;;;;0.30;0.30;;;;;;;;;;5055510;28;20031;-70
2023/12/26 07:36:53;;;;;;;0.60;0.60;;;;;;;;;;5055272;28;20033;-69
2023/12/26 07:39:19;;;;;;;0.40;0.40;;;;;;;;;;5055369;28;20450;-69
2023/12/26 07:41:44;;;;;;;0.40;0.40;;;;;;;;;;5073255;28;20102;-69
2023/12/26 07:44:10;;;;;;;0.65;0.63;;;;;;;;;;5073135;28;20051;-70
2023/12/26 07:46:35;;;;;;;0.63;0.32;;;;;;;;;;5055150;28;20028;-70
2023/12/26 07:49:01;;;;;;;1.00;0.98;;;;;;;;;;5055237;28;20466;-69
2023/12/26 07:51:26;;;;;;;0.68;0.68;;;;;;;;;;5073088;28;20021;-72
2023/12/26 07:53:52;;;;;;;0.73;0.73;;;;;;;;;;5072825;28;20481;-71
2023/12/26 07:56:18;;;;;;;0.88;0.88;;;;;;;;;;5072692;28;20109;-69
2023/12/26 07:58:44;;;;;;;0.65;0.50;;;;;;;;;;5038377;28;20012;-71
2023/12/26 08:01:09;;;;;;;0.93;0.88;;;;;;;;;;5072234;28;20566;-69
2023/12/26 08:03:35;;;;;;;0.75;0.75;;;;;;;;;;5071967;28;20033;-69
2023/12/26 08:06:00;;;;;;;1.23;1.00;;;;;;;;;;5071155;28;20016;-72
2023/12/26 08:08:26;;;;;;;1.17;0.73;;;;;;;;;;5072273;28;20100;-72
2023/12/26 08:10:51;;;;;;;0.65;0.50;;;;;;;;;;5072282;28;20024;-72
2023/12/26 08:13:17;;;;;;;0.93;0.82;;;;;;;;;;5071850;28;20072;-74
2023/12/26 08:15:42;;;;;;;1.58;1.30;;;;;;;;;;5072132;28;20119;-74
2023/12/26 08:18:08;;;;;;;1.00;0.90;;;;;;;;;;5072115;28;20060;-74
2023/12/26 08:20:34;;;;;;;0.73;0.73;;;;;;;;;;5054426;28;20036;-66
2023/12/26 08:23:00;;;;;;;1.30;1.20;;;;;;;;;;5073033;28;20069;-74
2023/12/26 08:25:29;;;;;;;1.25;0.63;;;;;;;;;;5073377;28;20020;-66
2023/12/26 08:27:55;;;;;;;0.43;0.43;;;;;;;;;;5073339;28;20033;-66
2023/12/26 08:30:21;;;;;;;1.42;0.98;;;;;;;;;;5073329;28;20039;-66
2023/12/26 08:32:46;;;;;;;0.75;0.75;;;;;;;;;;5072979;28;20032;-66
2023/12/26 08:35:13;;;;;;;1.70;1.13;;;;;;;;;;5073109;28;20450;-66
2023/12/26 08:37:38;;;;;;;1.15;1.02;;;;;;;;;;5056198;28;20024;-66
2023/12/26 08:40:04;;;;;;;1.83;0.65;;;;;;;;;;5058384;28;20070;-67
2023/12/26 08:42:29;;;;;;;1.20;1.10;;;;;;;;;;5075843;28;20028;-66
2023/12/26 08:44:54;;;;;;;1.05;0.98;;;;;;;;;;5076248;28;20013;-67
2023/12/26 08:47:20;;;;;;;0.90;0.80;;;;;;;;;;5058551;28;20055;-66
2023/12/26 08:49:45;;;;;;;0.47;0.47;;;;;;;;;;5076500;28;20025;-68
2023/12/26 08:52:13;;;;;;;0.63;0.63;;;;;;;;;;5058485;28;20033;-67
2023/12/26 08:54:38;;;;;;;1.25;1.10;;;;;;;;;;5076261;28;20454;-67
2023/12/26 08:57:04;;;;;;;1.02;0.80;;;;;;;;;;5076369;28;20021;-66
2023/12/26 08:59:29;;;;;;;1.90;0.95;;;;;;;;;;5076237;28;20028;-67
2023/12/26 09:01:54;;;;;;;1.15;1.05;;;;;;;;;;5076163;28;20024;-68
2023/12/26 09:04:20;;;;;;;1.85;1.15;;;;;;;;;;5076087;28;20032;-67
2023/12/26 09:06:45;;;;;;;0.82;0.70;;;;;;;;;;5076213;28;20352;-67
2023/12/26 09:09:12;;;;;;;1.30;1.05;;;;;;;;;;5057906;28;20516;-67
2023/12/26 09:11:38;;;;;;;1.52;1.00;;;;;;;;;;5076306;28;20028;-68
2023/12/26 09:14:03;;;;;;;0.70;0.70;;;;;;;;;;5075752;28;20119;-68
2023/12/26 09:16:29;;;;;;;1.08;1.08;;;;;;;;;;5057074;28;20021;-75
2023/12/26 09:18:54;;;;;;;1.00;0.90;;;;;;;;;;5075003;28;20382;-75
2023/12/26 09:21:20;;;;;;;1.92;1.10;;;;;;;;;;5057662;28;20082;-75
2023/12/26 09:23:45;;;;;;;0.80;0.73;;;;;;;;;;5075285;28;20490;-75
2023/12/26 09:26:12;;;;;;;1.80;0.68;;;;;;;;;;5075741;28;20024;-75
2023/12/26 09:28:37;;;;;;;0.82;0.75;;;;;;;;;;5074840;28;20076;-68
2023/12/26 09:31:07;;;;;;;0.80;0.80;;;;;;;;;;5075141;28;20081;-75
2023/12/26 09:33:32;;;;;;;1.00;0.90;;;;;;;;;;5075576;28;20059;-75
2023/12/26 09:35:58;;;;;;;1.20;0.90;;;;;;;;;;5074775;28;20386;-75
2023/12/26 09:38:23;;;;;;;1.45;0.98;;;;;;;;;;5074549;28;20024;-75
2023/12/26 09:40:49;;;;;;;1.70;0.85;;;;;;;;;;5056650;28;20391;-75
2023/12/26 09:43:14;;;;;;;1.40;0.90;;;;;;;;;;5074467;28;20047;-76
2023/12/26 09:45:40;;;;;;;1.00;0.90;;;;;;;;;;5056541;28;20024;-75
2023/12/26 09:48:06;;;;;;;0.95;0.88;;;;;;;;;;5074381;28;20474;-75
2023/12/26 09:50:31;;;;;;;1.25;1.15;;;;;;;;;;5055624;28;20043;-75
2023/12/26 09:53:00;;;;;;;1.65;1.40;;;;;;;;;;5074341;28;20367;-74
2023/12/26 09:55:29;;;;;;;0.93;0.93;;;;;;;;;;5056234;28;20036;-70
2023/12/26 09:57:58;;;;;;;0.80;0.80;;;;;;;;;;5074180;28;20029;-69
2023/12/26 10:00:25;;;;;;;1.10;0.93;;;;;;;;;;5073018;28;20485;-73
2023/12/26 10:02:51;;;;;;;1.17;1.08;;;;;;;;;;5074021;28;20364;-71
2023/12/26 10:05:17;;;;;;;2.17;1.40;;;;;;;;;;5074006;28;20500;-70
2023/12/26 10:07:43;;;;;;;1.63;1.20;;;;;;;;;;5073870;28;20425;-71
2023/12/26 10:10:11;;;;;;;0.77;0.65;;;;;;;;;;5073899;28;20020;-71
2023/12/26 10:12:36;;;;;;;1.20;1.10;;;;;;;;;;5073920;28;20033;-71
2023/12/26 10:15:05;;;;;;;0.68;0.68;;;;;;;;;;5073890;28;20028;-71
2023/12/26 10:17:31;;;;;;;1.30;0.95;;;;;;;;;;5072608;28;20064;-71
2023/12/26 10:19:57;;;;;;;1.17;1.08;;;;;;;;;;5055763;28;20040;-71
2023/12/26 10:22:23;;;;;;;1.38;1.20;;;;;;;;;;5073637;28;20063;-72
2023/12/26 10:24:49;;;;;;;1.27;1.08;;;;;;;;;;5055795;28;20069;-71
2023/12/26 10:27:15;;;;;;;1.38;1.20;;;;;;;;;;5055940;28;20032;-71
2023/12/26 10:29:40;;;;;;;1.13;1.05;;;;;;;;;;5052685;28;20044;-71
2023/12/26 10:32:05;;;;;;;1.48;1.38;;;;;;;;;;5053578;28;20052;-72
2023/12/26 10:34:31;;;;;;;1.25;1.15;;;;;;;;;;5019178;28;20122;-72
2023/12/26 10:36:58;;;;;;;2.20;1.40;;;;;;;;;;5053447;28;20036;-72
2023/12/26 10:39:23;;;;;;;1.88;1.25;;;;;;;;;;5053421;28;20032;-71
2023/12/26 10:41:49;;;;;;;2.17;1.45;;;;;;;;;;5053361;28;20044;-68
2023/12/26 10:44:16;;;;;;;1.55;1.30;;;;;;;;;;5054313;28;20482;-68
2023/12/26 10:46:43;;;;;;;1.30;1.15;;;;;;;;;;5054268;28;20063;-68
2023/12/26 10:49:09;;;;;;;1.50;1.40;;;;;;;;;;5054169;28;20545;-72
2023/12/26 10:51:37;;;;;;;0.95;0.70;;;;;;;;;;5053937;28;20467;-73
2023/12/26 10:54:19;;;;;;;0.52;0.52;;;;;;;;;;5053541;28;20025;-73
2023/12/26 10:56:46;;;;;;;1.58;0.93;;;;;;;;;;5053859;28;20033;-73
2023/12/26 13:51:24;;;;;;;3.05;2.25;;;;;;;;;;5075467;28;20484;-73
2023/12/26 13:54:08;;;;;;;4.18;2.20;;;;;;;;;;5057390;28;20039;-73
2023/12/26 13:56:52;;;;;;;2.40;2.20;;;;;;;;;;5057425;28;20052;-73
2023/12/26 13:59:36;;;;;;;2.47;2.28;;;;;;;;;;5075381;28;20060;-73
2023/12/26 14:02:21;;;;;;;2.60;2.10;;;;;;;;;;5066829;23;20056;-73
2023/12/26 14:05:05;;;;;;;3.95;3.00;;;;;;;;;;5020769;28;20128;-73
2023/12/26 14:07:55;;;;;;;5.63;2.92;;;;;;;;;;5055364;28;20036;-73
2023/12/26 14:10:47;;;;;;;3.85;2.58;;;;;;;;;;5038627;22;20122;-63
2023/12/26 14:13:33;;;;;;;3.00;2.65;;;;;;;;;;5054059;28;20387;-63
2023/12/26 14:16:19;;;;;;;3.60;2.60;;;;;;;;;;5055264;28;20037;-63
2023/12/26 14:19:03;;;;;;;3.95;2.47;;;;;;;;;;5055274;28;20033;-63
2023/12/26 14:21:47;;;;;;;2.30;2.10;;;;;;;;;;5055085;28;20033;-63
2023/12/26 14:24:31;;;;;;;4.35;2.85;;;;;;;;;;5055451;28;20029;-63
2023/12/26 14:27:15;;;;;;;4.28;2.97;;;;;;;;;;5055075;28;20017;-63
2023/12/26 14:29:59;;;;;;;3.45;2.67;;;;;;;;;;5053510;28;20064;-63
2023/12/26 14:32:43;;;;;;;6.18;3.20;;;;;;;;;;5055236;28;20033;-63
2023/12/26 14:35:26;;;;;;;3.63;2.75;;;;;;;;;;5054640;28;20040;-63
2023/12/26 14:38:10;;;;;;;4.35;3.13;;;;;;;;;;5054841;28;20033;-63
2023/12/26 14:40:58;;;;;;;6.00;3.70;;;;;;;;;;5055086;28;20051;-63
2023/12/26 14:43:42;;;;;;;5.38;3.33;;;;;;;;;;5054945;28;20029;-63
2023/12/26 14:46:26;;;;;;;4.97;3.22;;;;;;;;;;5054484;28;20116;-62
2023/12/26 14:49:10;;;;;;;7.32;3.58;;;;;;;;;;5037230;28;20029;-63
2023/12/26 14:51:55;;;;;;;5.68;3.35;;;;;;;;;;5054665;28;20037;-63
2023/12/26 14:54:39;;;;;;;4.72;2.67;;;;;;;;;;5054530;28;20529;-63
2023/12/26 14:57:22;;;;;;;2.92;2.58;;;;;;;;;;5054816;28;20071;-63
2023/12/26 15:00:06;;;;;;;2.25;2.05;;;;;;;;;;5054699;28;20037;-63
2023/12/26 15:02:32;;;;;;;3.88;2.25;;;;;;;;;;5036225;28;20490;-63
2023/12/26 15:04:58;;;;;;;3.05;2.22;;;;;;;;;;5054111;28;20033;-63
2023/12/26 15:07:23;;;;;;;4.30;2.55;;;;;;;;;;5054275;28;20032;-62
2023/12/26 15:09:49;;;;;;;6.18;3.00;;;;;;;;;;5054326;28;20032;-63
2023/12/26 15:12:14;;;;;;;5.57;3.45;;;;;;;;;;5053861;28;20045;-63
2023/12/26 15:14:39;;;;;;;6.03;3.65;;;;;;;;;;5036423;28;20025;-63
2023/12/26 15:17:05;;;;;;;6.13;3.85;;;;;;;;;;5036739;28;20036;-63
2023/12/26 15:19:31;;;;;;;6.30;3.70;;;;;;;;;;5036442;28;20024;-62
2023/12/26 15:21:56;;;;;;;7.25;5.25;;;;;;;;;;5054050;28;20372;-63
2023/12/26 15:24:21;;;;;;;6.90;5.20;;;;;;;;;;5054377;28;20021;-63
2023/12/26 15:26:47;;;;;;;8.55;6.10;;;;;;;;;;5036287;28;20044;-63
2023/12/26 15:29:12;;;;;;;10.98;6.63;;;;;;;;;;5054032;28;20111;-63
2023/12/26 15:31:38;;;;;;;9.27;6.05;;;;;;;;;;5052808;28;20463;-63
2023/12/26 15:34:03;;;;;;;10.15;5.95;;;;;;;;;;5053958;28;20039;-63
2023/12/26 15:36:29;;;;;;;11.85;8.05;;;;;;;;;;5053625;28;20036;-63
2023/12/26 15:38:54;;;;;;;13.25;7.25;;;;;;;;;;5054172;28;20101;-63
2023/12/26 15:41:20;;;;;;;13.52;7.13;;;;;;;;;;5053456;28;20033;-63
2023/12/26 15:43:46;;;;;;;9.13;5.75;;;;;;;;;;5036241;28;20017;-64
2023/12/26 15:46:24;;;;;;;11.77;6.53;;;;;;;;;;5053450;28;20426;-63
2023/12/26 15:48:50;;;;;;;12.98;7.63;;;;;;;;;;5053125;28;20017;-63
2023/12/26 15:51:18;;;;;;;14.82;8.23;;;;;;;;;;5054060;28;20391;-64
2023/12/26 15:53:44;;;;;;;14.13;8.15;;;;;;;;;;5053756;28;20387;-64
2023/12/26 15:56:10;;;;;;;11.15;5.35;;;;;;;;;;5053432;28;20025;-63
2023/12/26 15:58:35;;;;;;;11.50;5.88;;;;;;;;;;5053447;28;20025;-63
2023/12/26 16:01:01;;;;;;;14.15;7.43;;;;;;;;;;5053380;28;20029;-63
2023/12/26 16:03:26;;;;;;;9.13;5.63;;;;;;;;;;5053571;28;20040;-63
2023/12/26 16:05:52;;;;;;;8.55;5.68;;;;;;;;;;5035486;28;20013;-63
2023/12/26 16:08:17;;;;;;;11.43;5.75;;;;;;;;;;5053646;28;20036;-64
2023/12/26 16:10:43;;;;;;;9.27;5.75;;;;;;;;;;5053387;28;20029;-63
2023/12/26 16:13:08;;;;;;;9.63;5.25;;;;;;;;;;5035404;28;20072;-63
2023/12/26 16:15:34;;;;;;;7.20;4.55;;;;;;;;;;5053292;28;20063;-64
2023/12/26 16:20:29;;;;;;;8.10;4.15;;;;;;;;;;5043482;22;20587;-64
2023/12/26 16:22:55;;;;;;;6.07;4.60;;;;;;;;;;5055240;28;20028;-63
2023/12/26 16:25:20;;;;;;;5.80;3.80;;;;;;;;;;5073179;28;20496;-64
2023/12/26 16:27:48;;;;;;;6.53;5.00;;;;;;;;;;5073463;28;20031;-64
2023/12/26 16:30:38;;;;;;;5.80;3.30;;;;;;;;;;5087990;22;20764;-74
2023/12/26 16:33:05;;;;;;;4.07;3.65;;;;;;;;;;5012300;28;20054;-63
2023/12/26 16:35:31;;;;;;;5.95;3.65;;;;;;;;;;5013723;28;20404;-61
2023/12/26 16:37:56;;;;;;;3.17;2.35;;;;;;;;;;5013470;28;20026;-63
2023/12/26 16:40:21;;;;;;;4.57;3.25;;;;;;;;;;5013431;28;20108;-63
2023/12/26 16:42:48;;;;;;;5.70;4.15;;;;;;;;;;5012035;28;20026;-63
2023/12/26 16:45:17;;;;;;;4.22;3.17;;;;;;;;;;5012105;28;20498;-64
2023/12/26 16:47:42;;;;;;;4.80;3.17;;;;;;;;;;5013354;28;20037;-64
2023/12/26 16:50:08;;;;;;;3.38;2.55;;;;;;;;;;5081109;22;20049;-64
2023/12/26 16:52:33;;;;;;;5.05;3.00;;;;;;;;;;5103835;22;20056;-74
2023/12/26 16:54:59;;;;;;;3.92;2.47;;;;;;;;;;5054658;23;20061;-64
2023/12/26 16:57:29;;;;;;;2.65;2.35;;;;;;;;;;5053734;28;20111;-74
2023/12/26 16:59:55;;;;;;;4.65;3.08;;;;;;;;;;5056363;28;20359;-63
2023/12/26 17:02:22;;;;;;;2.85;2.40;;;;;;;;;;5056401;28;20040;-64
2023/12/26 17:04:47;;;;;;;3.58;2.38;;;;;;;;;;5038418;28;20450;-63
2023/12/26 17:07:12;;;;;;;4.72;2.53;;;;;;;;;;5056342;28;20120;-63
2023/12/26 17:09:39;;;;;;;4.93;2.90;;;;;;;;;;5055500;23;20081;-67
2023/12/26 17:12:09;;;;;;;4.18;2.05;;;;;;;;;;5085187;22;20053;-63
2023/12/26 17:14:52;;;;;;;5.10;3.30;;;;;;;;;;5057084;28;20164;-64
2023/12/26 17:17:17;;;;;;;5.28;3.22;;;;;;;;;;5076710;28;20121;-64
2023/12/26 17:19:42;;;;;;;5.00;3.10;;;;;;;;;;5041558;28;20024;-63
2023/12/26 17:22:11;;;;;;;3.40;2.25;;;;;;;;;;5075129;28;20433;-63
2023/12/26 17:25:04;;;;;;;3.20;2.58;;;;;;;;;;5076601;28;20020;-63
2023/12/26 17:27:40;;;;;;;4.47;2.80;;;;;;;;;;5076581;28;20032;-64
2023/12/26 17:30:19;;;;;;;4.22;2.63;;;;;;;;;;5075927;28;20025;-63
2023/12/26 17:32:45;;;;;;;2.67;2.22;;;;;;;;;;5076101;28;20032;-64
2023/12/26 17:35:11;;;;;;;2.25;1.50;;;;;;;;;;5076089;28;20036;-63
2023/12/26 17:37:36;;;;;;;2.60;2.28;;;;;;;;;;5076056;28;20043;-64
2023/12/26 17:40:02;;;;;;;3.80;2.30;;;;;;;;;;5057899;28;20514;-63